Terminal Aerodrome Forecast
Issued by NWS Boston, MA

Home | Current Version | Previous Version | Text Only | Print | Product List | Glossary On
Versions: 1 2 3 4 5 6 7 8 9 10 11 12 13 14 15 16 17 18 19 20 21 22 23 24 25 26
000
FTUS41 KBOX 172335
TAFBDL
TAF
KBDL 172335Z 1800/1906 31005KT P6SM SKC
     FM181400 18004KT P6SM BKN120
     FM182000 19006KT P6SM OVC035
     FM182300 19007KT 4SM BR OVC025
     FM190000 19007KT 3SM -RA BR OVC015
     FM190300 19009G18KT 2SM -RA BR OVC010=

USA.gov is the U.S. government's official web portal to all federal, state and local government web resources and services.